createdAt,value
2023-06-20T00:00:10.294Z,21.06
2023-06-20T00:02:38.098Z,20.98
2023-06-20T00:05:06.507Z,20.96
2023-06-20T00:07:34.639Z,21.12
2023-06-20T00:10:02.247Z,21.12
2023-06-20T00:12:29.826Z,21.05
2023-06-20T00:14:57.983Z,20.98
2023-06-20T00:17:27.010Z,20.98
2023-06-20T00:19:54.760Z,21.11
2023-06-20T00:22:23.393Z,21.06
2023-06-20T00:24:50.914Z,21.01
2023-06-20T00:27:18.675Z,20.98
2023-06-20T00:29:46.233Z,21.05
2023-06-20T00:32:13.808Z,21.21
2023-06-20T00:34:41.422Z,21.16
2023-06-20T00:37:09.064Z,21.11
2023-06-20T00:39:36.844Z,21.09
2023-06-20T00:42:05.601Z,21.09
2023-06-20T00:44:33.146Z,21.30
2023-06-20T00:47:00.832Z,21.35
2023-06-20T00:49:28.455Z,21.26
2023-06-20T00:51:56.015Z,21.19
2023-06-20T00:54:23.543Z,21.15
2023-06-20T00:56:51.742Z,21.15
2023-06-20T00:59:19.283Z,21.35
2023-06-20T01:01:48.028Z,21.44
2023-06-20T01:04:15.587Z,21.35
2023-06-20T01:06:52.081Z,21.25
2023-06-20T01:09:30.189Z,21.16
2023-06-20T01:12:12.722Z,21.19
2023-06-20T01:14:58.451Z,21.24
2023-06-20T01:17:51.577Z,21.12
2023-06-20T01:20:28.597Z,21.02
2023-06-20T01:23:05.654Z,20.99
2023-06-20T01:26:03.781Z,21.14
2023-06-20T01:28:51.629Z,21.05
2023-06-20T01:31:37.656Z,20.89
2023-06-20T01:34:10.599Z,20.80
2023-06-20T01:36:39.235Z,20.91
2023-06-20T01:39:15.900Z,20.82
2023-06-20T01:41:49.175Z,20.64
2023-06-20T01:44:17.501Z,20.66
2023-06-20T01:46:46.025Z,20.72
2023-06-20T01:49:13.518Z,20.60
2023-06-20T01:51:41.111Z,20.48
2023-06-20T01:54:09.166Z,20.56
2023-06-20T01:56:37.718Z,20.61
2023-06-20T01:59:06.541Z,20.48
2023-06-20T02:01:34.094Z,20.39
2023-06-20T02:04:02.403Z,20.45
2023-06-20T02:06:30.452Z,20.47
2023-06-20T02:08:58.028Z,20.35
2023-06-20T02:11:26.487Z,20.19
2023-06-20T02:13:54.052Z,20.22
2023-06-20T02:16:23.025Z,20.36
2023-06-20T02:18:50.598Z,20.34
2023-06-20T02:21:24.218Z,20.23
2023-06-20T02:23:52.105Z,20.20
2023-06-20T02:26:19.958Z,20.12
2023-06-20T02:28:49.834Z,20.00
2023-06-20T02:31:21.896Z,19.91
2023-06-20T02:33:50.204Z,20.04
2023-06-20T02:36:18.844Z,20.05
2023-06-20T02:38:46.311Z,19.92
2023-06-20T02:41:13.918Z,20.01
2023-06-20T02:43:41.511Z,20.13
2023-06-20T02:46:19.469Z,20.10
2023-06-20T02:49:10.710Z,19.99
2023-06-20T02:51:41.221Z,19.95
2023-06-20T02:54:21.562Z,20.13
2023-06-20T02:56:54.488Z,20.25
2023-06-20T02:59:22.893Z,20.37
2023-06-20T03:01:51.257Z,20.48
2023-06-20T03:04:19.615Z,20.68
2023-06-20T03:06:47.123Z,20.69
2023-06-20T03:09:14.540Z,20.66
2023-06-20T03:11:42.083Z,20.66
2023-06-20T03:14:15.427Z,20.84
2023-06-20T03:16:43.411Z,20.89
2023-06-20T03:19:11.632Z,20.77
2023-06-20T03:21:42.392Z,20.70
2023-06-20T03:24:10.530Z,20.74
2023-06-20T03:26:39.544Z,20.63
2023-06-20T03:29:07.329Z,20.47
2023-06-20T03:31:35.525Z,20.57
2023-06-20T03:34:08.836Z,20.68
2023-06-20T03:36:39.453Z,20.67
2023-06-20T03:39:08.757Z,20.70
2023-06-20T03:41:38.457Z,20.89
2023-06-20T03:44:09.950Z,20.86
2023-06-20T03:46:37.524Z,20.83
2023-06-20T03:49:05.893Z,20.94
2023-06-20T03:51:33.458Z,21.13
2023-06-20T03:54:01.153Z,21.12
2023-06-20T03:56:29.023Z,21.16
2023-06-20T03:58:56.620Z,21.40
2023-06-20T04:01:25.689Z,21.54
2023-06-20T04:03:55.755Z,21.67
2023-06-20T04:06:31.407Z,21.83
2023-06-20T04:08:59.923Z,22.08
2023-06-20T04:11:27.436Z,22.37
2023-06-20T04:13:55.918Z,22.31
2023-06-20T04:16:23.508Z,22.26
2023-06-20T04:18:51.030Z,22.36
2023-06-20T04:21:19.497Z,22.65
2023-06-20T04:23:47.197Z,22.93
2023-06-20T04:26:14.773Z,23.06
2023-06-20T04:28:43.063Z,23.32
2023-06-20T04:31:12.828Z,23.55
2023-06-20T04:33:45.881Z,23.53
2023-06-20T04:36:16.692Z,23.51
2023-06-20T04:38:46.197Z,23.77
2023-06-20T04:41:14.591Z,23.95
2023-06-20T04:43:45.950Z,24.12
2023-06-20T04:46:14.133Z,24.34
2023-06-20T04:48:41.677Z,24.45
2023-06-20T04:51:10.462Z,24.62
2023-06-20T04:53:38.234Z,24.75
2023-06-20T04:56:06.588Z,24.84
2023-06-20T04:58:34.103Z,24.91
2023-06-20T05:01:01.781Z,24.90
2023-06-20T05:03:29.349Z,24.96
2023-06-20T05:05:57.454Z,25.02
2023-06-20T05:08:25.109Z,25.10
2023-06-20T05:10:52.594Z,25.16
2023-06-20T05:13:20.157Z,25.22
2023-06-20T05:15:47.891Z,25.21
2023-06-20T05:18:15.354Z,25.18
2023-06-20T05:20:42.949Z,25.20
2023-06-20T05:23:10.609Z,25.32
2023-06-20T05:25:38.327Z,25.51
2023-06-20T05:28:06.878Z,25.66
2023-06-20T05:30:34.629Z,25.72
2023-06-20T05:33:02.505Z,25.78
2023-06-20T05:35:30.136Z,25.66
2023-06-20T05:37:57.762Z,25.56
2023-06-20T05:40:26.148Z,25.59
2023-06-20T05:42:54.232Z,26.02
2023-06-20T05:45:21.734Z,26.48
2023-06-20T05:47:51.201Z,26.73
2023-06-20T05:50:19.734Z,26.81
2023-06-20T05:52:48.149Z,26.87
2023-06-20T05:55:15.742Z,26.98
2023-06-20T05:57:43.183Z,27.22
2023-06-20T06:00:14.245Z,27.42
2023-06-20T06:02:47.937Z,27.39
2023-06-20T06:05:16.641Z,27.40
2023-06-20T06:07:44.304Z,27.41
2023-06-20T06:10:11.924Z,27.41
2023-06-20T06:12:39.585Z,27.36
2023-06-20T06:15:09.146Z,27.61
2023-06-20T06:17:37.164Z,27.82
2023-06-20T06:20:05.837Z,27.70
2023-06-20T06:22:33.662Z,27.69
2023-06-20T06:25:02.481Z,27.53
2023-06-20T06:27:30.028Z,27.37
2023-06-20T06:29:57.527Z,27.46
2023-06-20T06:32:25.112Z,27.75
2023-06-20T06:34:52.580Z,27.87
2023-06-20T06:37:20.172Z,27.92
2023-06-20T06:39:47.876Z,27.74
2023-06-20T06:42:15.506Z,27.69
2023-06-20T06:44:43.119Z,27.73
2023-06-20T06:47:11.930Z,27.73
2023-06-20T06:49:40.669Z,27.88
2023-06-20T06:52:08.668Z,28.15
2023-06-20T06:54:36.492Z,28.20
2023-06-20T06:57:04.342Z,28.24
2023-06-20T06:59:31.927Z,28.31
2023-06-20T07:01:59.920Z,28.39
2023-06-20T07:04:28.613Z,28.39
2023-06-20T07:06:56.227Z,28.40
2023-06-20T07:09:24.530Z,28.34
2023-06-20T07:11:52.118Z,28.43
2023-06-20T07:14:19.803Z,28.60
2023-06-20T07:17:03.942Z,28.78
2023-06-20T07:19:32.547Z,28.85
2023-06-20T07:22:00.148Z,28.91
2023-06-20T07:24:27.943Z,29.00
2023-06-20T07:26:55.691Z,29.17
2023-06-20T07:29:23.407Z,29.19
2023-06-20T07:31:51.358Z,29.33
2023-06-20T07:34:19.105Z,29.44
2023-06-20T07:36:46.966Z,29.41
2023-06-20T07:39:14.925Z,29.41
2023-06-20T07:41:44.760Z,29.46
2023-06-20T07:44:13.368Z,29.51
2023-06-20T07:46:41.157Z,29.66
2023-06-20T07:49:08.923Z,29.96
2023-06-20T07:51:38.222Z,30.16
2023-06-20T07:54:06.026Z,30.07
2023-06-20T07:56:33.881Z,30.11
2023-06-20T07:59:01.570Z,30.30
2023-06-20T08:01:35.155Z,30.37
2023-06-20T08:04:03.865Z,30.24
2023-06-20T08:06:31.766Z,30.21
2023-06-20T08:08:59.592Z,30.27
2023-06-20T08:11:27.977Z,30.59
2023-06-20T08:14:01.011Z,30.70
2023-06-20T08:16:32.519Z,30.87
2023-06-20T08:19:05.272Z,30.90
2023-06-20T08:21:32.978Z,30.77
2023-06-20T08:28:05.712Z,30.53
2023-06-20T08:30:40.299Z,30.62
2023-06-20T08:33:08.482Z,30.74
2023-06-20T08:35:41.990Z,30.86
2023-06-20T08:38:11.626Z,30.90
2023-06-20T08:40:39.119Z,30.89
2023-06-20T08:43:06.940Z,31.02
2023-06-20T08:45:34.737Z,30.98
2023-06-20T08:48:02.551Z,30.97
2023-06-20T08:50:31.303Z,31.18
2023-06-20T08:53:01.889Z,31.25
2023-06-20T08:55:32.767Z,31.37
2023-06-20T08:58:03.693Z,31.64
2023-06-20T09:00:35.466Z,31.71
2023-06-20T09:03:04.951Z,31.79
2023-06-20T09:05:42.464Z,31.76
2023-06-20T09:08:18.965Z,31.89
2023-06-20T09:10:46.770Z,31.96
2023-06-20T09:13:15.035Z,31.91
2023-06-20T09:15:44.491Z,31.98
2023-06-20T09:18:17.391Z,32.04
2023-06-20T09:20:45.514Z,32.01
2023-06-20T09:23:16.069Z,31.84
2023-06-20T09:25:47.513Z,31.89
2023-06-20T09:28:17.599Z,32.17
2023-06-20T09:30:50.335Z,32.53
2023-06-20T09:33:18.881Z,32.80
2023-06-20T09:35:48.823Z,32.96
2023-06-20T09:38:16.518Z,33.07
2023-06-20T09:40:46.859Z,33.15
2023-06-20T09:43:16.162Z,33.40
2023-06-20T09:45:43.969Z,33.47
2023-06-20T09:48:11.868Z,33.52
2023-06-20T09:50:39.611Z,33.50
2023-06-20T09:53:13.714Z,33.34
2023-06-20T09:55:42.836Z,33.32
2023-06-20T09:58:11.175Z,33.44
2023-06-20T10:00:39.718Z,33.58
2023-06-20T10:03:09.691Z,33.78
2023-06-20T10:05:38.930Z,34.08
2023-06-20T10:08:06.670Z,34.37
2023-06-20T10:10:36.246Z,34.41
2023-06-20T10:13:09.580Z,34.34
2023-06-20T10:15:38.310Z,34.15
2023-06-20T10:18:32.660Z,33.98
2023-06-20T10:21:04.375Z,33.98
2023-06-20T10:23:35.319Z,33.77
2023-06-20T10:26:07.175Z,33.60
2023-06-20T10:39:58.672Z,34.06
2023-06-20T10:42:39.735Z,33.70
2023-06-20T10:45:20.524Z,33.10
2023-06-20T10:47:48.817Z,32.75
2023-06-20T10:50:16.633Z,32.44
2023-06-20T10:52:47.600Z,32.26
2023-06-20T10:55:16.101Z,32.35
2023-06-20T10:57:47.201Z,32.48
2023-06-20T11:00:19.322Z,32.42
2023-06-20T11:02:51.720Z,32.37
2023-06-20T11:05:19.389Z,32.17
2023-06-20T11:08:01.000Z,32.00
2023-06-20T11:10:33.368Z,31.95
2023-06-20T11:14:22.802Z,31.96
2023-06-20T11:16:52.456Z,32.07
2023-06-20T11:29:14.246Z,32.18
2023-06-20T11:31:42.366Z,32.26
2023-06-20T11:34:13.527Z,32.24
2023-06-20T11:36:41.929Z,32.46
2023-06-20T11:39:12.696Z,32.71
2023-06-20T11:41:40.457Z,32.53
2023-06-20T11:44:23.079Z,32.50
2023-06-20T11:46:50.861Z,32.65
2023-06-20T11:49:31.913Z,32.79
2023-06-20T11:52:07.112Z,32.96
2023-06-20T11:54:53.501Z,33.18
2023-06-20T11:57:51.081Z,33.33
2023-06-20T12:00:30.112Z,33.51
2023-06-20T12:03:00.326Z,33.69
2023-06-20T12:05:36.443Z,33.70
2023-06-20T12:08:05.125Z,33.43
2023-06-20T12:10:35.659Z,33.27
2023-06-20T12:13:07.291Z,33.24
2023-06-20T12:15:36.195Z,32.66
2023-06-20T12:18:04.153Z,32.14
2023-06-20T12:20:42.422Z,31.61
2023-06-20T12:23:19.847Z,31.01
2023-06-20T12:25:47.994Z,30.28
2023-06-20T12:28:16.981Z,29.60
2023-06-20T12:30:45.572Z,28.91
2023-06-20T12:33:14.996Z,28.00
2023-06-20T12:35:46.779Z,27.72
2023-06-20T12:38:14.667Z,27.30
2023-06-20T12:40:42.427Z,26.97
2023-06-20T12:43:12.051Z,26.78
2023-06-20T12:45:39.619Z,26.67
2023-06-20T12:48:07.623Z,26.54
2023-06-20T12:50:36.357Z,25.48
2023-06-20T12:53:03.969Z,24.60
2023-06-20T12:55:36.222Z,24.27
2023-06-20T12:58:03.985Z,24.20
2023-06-20T13:00:31.948Z,24.22
2023-06-20T13:03:01.104Z,24.29
2023-06-20T13:05:30.202Z,24.12
2023-06-20T13:07:57.862Z,24.11
2023-06-20T13:10:25.939Z,23.96
2023-06-20T13:12:55.542Z,24.18
2023-06-20T13:15:25.975Z,24.12
2023-06-20T13:17:56.333Z,24.17
2023-06-20T13:20:27.978Z,24.26
2023-06-20T13:22:56.928Z,24.15
2023-06-20T13:25:24.601Z,24.15
2023-06-20T13:27:54.540Z,24.25
2023-06-20T13:30:22.359Z,24.42
2023-06-20T13:32:51.701Z,24.70
2023-06-20T13:35:25.457Z,25.07
2023-06-20T13:37:55.556Z,25.21
2023-06-20T13:40:31.865Z,25.34
2023-06-20T13:43:01.199Z,25.48
2023-06-20T13:45:30.833Z,25.63
2023-06-20T13:48:01.908Z,25.78
2023-06-20T13:50:35.341Z,25.71
2023-06-20T13:53:05.758Z,25.66
2023-06-20T13:55:33.817Z,25.76
2023-06-20T13:58:02.634Z,25.96
2023-06-20T14:00:40.950Z,26.09
2023-06-20T14:03:08.822Z,26.24
2023-06-20T14:05:38.019Z,26.55
2023-06-20T14:08:06.247Z,26.85
2023-06-20T14:10:34.974Z,27.02
2023-06-20T14:13:02.925Z,26.98
2023-06-20T14:15:31.733Z,26.62
2023-06-20T14:17:59.944Z,26.32
2023-06-20T14:20:30.205Z,25.34
2023-06-20T14:23:06.880Z,24.98
2023-06-20T14:28:28.153Z,24.72
2023-06-20T14:37:05.423Z,24.85
2023-06-20T15:06:48.173Z,25.17
2023-06-20T15:09:17.278Z,25.08
2023-06-20T15:11:59.708Z,24.97
2023-06-20T15:14:30.138Z,24.24
2023-06-20T15:16:58.398Z,22.99
2023-06-20T15:19:28.612Z,21.69
2023-06-20T15:21:57.391Z,20.82
2023-06-20T15:24:25.318Z,20.35
2023-06-20T15:26:53.019Z,20.17
2023-06-20T15:29:21.650Z,20.07
2023-06-20T15:31:49.308Z,20.00
2023-06-20T15:34:16.825Z,19.90
2023-06-20T15:36:44.451Z,19.78
2023-06-20T15:39:13.070Z,19.70
2023-06-20T15:41:44.932Z,19.59
2023-06-20T15:44:12.491Z,19.48
2023-06-20T15:46:53.125Z,19.40
2023-06-20T15:49:23.491Z,19.32
2023-06-20T15:51:51.339Z,19.31
2023-06-20T15:54:19.657Z,19.32
2023-06-20T15:56:47.346Z,19.36
2023-06-20T15:59:17.736Z,19.39
2023-06-20T16:01:45.461Z,19.43
2023-06-20T16:04:13.152Z,19.53
2023-06-20T21:22:17.479Z,20.63
2023-06-20T21:24:48.376Z,20.58
2023-06-20T21:27:18.027Z,20.53
2023-06-20T21:29:48.920Z,20.50
2023-06-20T21:32:16.589Z,20.49
2023-06-20T21:34:46.223Z,20.52
2023-06-20T21:37:16.189Z,20.54
2023-06-20T21:39:48.855Z,20.53
2023-06-20T21:42:18.319Z,20.49
2023-06-20T21:44:46.458Z,20.45
2023-06-20T21:47:14.452Z,20.44
2023-06-20T21:49:45.398Z,20.45
2023-06-20T21:52:14.916Z,20.47
2023-06-20T21:54:44.398Z,20.47
2023-06-20T21:57:15.687Z,20.48
2023-06-20T21:59:44.237Z,20.50
2023-06-20T22:02:11.993Z,20.47
2023-06-20T22:04:40.726Z,20.39
2023-06-20T22:07:09.718Z,20.30
2023-06-20T22:09:47.431Z,20.25
2023-06-20T22:12:26.067Z,20.22
2023-06-20T22:14:57.652Z,20.21
2023-06-20T22:17:27.093Z,20.25
2023-06-20T22:19:59.190Z,20.27
2023-06-20T22:22:35.516Z,20.23
2023-06-20T22:25:11.509Z,20.16
2023-06-20T22:27:40.884Z,20.13
2023-06-20T22:30:11.776Z,20.10
2023-06-20T22:32:39.796Z,20.11
2023-06-20T22:35:07.923Z,20.12
2023-06-20T22:37:37.264Z,20.10
2023-06-20T22:40:10.086Z,20.07
2023-06-20T22:42:39.983Z,20.04
2023-06-20T22:47:09.663Z,19.49
2023-06-20T22:49:46.330Z,19.86
2023-06-20T22:52:23.876Z,19.96
2023-06-20T22:54:52.169Z,19.94
2023-06-20T22:57:23.781Z,19.91
2023-06-20T22:59:53.262Z,19.89
2023-06-20T23:02:25.258Z,19.87
2023-06-20T23:04:58.056Z,19.84
2023-06-20T23:07:27.151Z,19.83
2023-06-20T23:09:57.532Z,19.84
2023-06-20T23:12:30.022Z,19.83
2023-06-20T23:14:59.139Z,19.79
2023-06-20T23:17:27.142Z,19.77
2023-06-20T23:19:56.418Z,19.76
2023-06-20T23:22:24.307Z,19.79
2023-06-20T23:24:51.721Z,19.79
2023-06-20T23:27:21.226Z,19.80
2023-06-20T23:29:48.434Z,19.82
2023-06-20T23:32:16.271Z,19.82
2023-06-20T23:34:45.710Z,19.84
2023-06-20T23:37:14.837Z,19.85
2023-06-20T23:39:42.631Z,19.86
2023-06-20T23:42:15.716Z,19.89
2023-06-20T23:44:48.477Z,19.93
2023-06-20T23:47:15.877Z,19.96
2023-06-20T23:49:45.105Z,19.98
2023-06-20T23:52:12.735Z,20.00
2023-06-20T23:54:42.115Z,20.05
2023-06-20T23:57:19.659Z,20.09
2023-06-20T23:59:49.253Z,20.14
